Terminal Aerodrome Forecast
Issued by NWS Amarillo, TX

Home | Current Version | Previous Version | Text Only | Print | Product List | Glossary On
Versions: 1 2 3 4 5 6 7 8 9 10 11 12 13 14 15 16 17 18 19 20 21
995
FTUS44 KAMA 291720
TAFGUY
TAF
KGUY 291720Z 2918/3018 05016G26KT P6SM OVC007
      TEMPO 2919/2923 3SM -SHRA BR OVC006
     FM300300 33010KT P6SM OVC015
     FM301000 33010KT P6SM OVC007
     FM301500 32013KT P6SM SCT250=

USA.gov is the U.S. government's official web portal to all federal, state and local government web resources and services.